Pagina principale
METAR-TAF:

METAR-TAF

Aeroporti :

Aeroporto di Francistown

Francistown, Botswana

latitudine: 21-13S, longitudine: 027-30E, altezza: 1001 m

Osservazione

Il bollettino è stato emesso 4 ore e 44 minuti fa, alle 19:00 UTC
Vento 5 kt da sud/sud-est
Temperature 12°C
Umidità 40%
Pressione 1027 hPa
Visibilità 10 km o più
nessuna nube inferiore a 1500 m e nessun cumulonembo

METAR: FBFT 161900Z 15005KT CAVOK 12/M01 Q1027

Ora: 01:44 (23:44 UTC)

Previsione

Il bollettino è stato emesso 2 ore e 44 minuti fa, alle 21:00 UTC
Previsione valida dal 17 alle 00 UTC al 17 alle 09 UTC
Vento 9 kt da sud-est
Visibilità 10 km o più
nessuna nube inferiore a 1500 m e nessun cumulonembo

TAF: FBFT 162100Z 1700/1709 14009KT CAVOK

Osservazioni e previsioni meteorologiche di più di 4000 aeroporti (messaggi METAR e TAF).

Le stazioni disponibili sono rappresentate dai dischi gialli e rossi sulla carta.

Puntare il mouse per vedere il nome della stazione.

Clicca sopra per visualizzare le osservazioni e previsioni meteorologiche.

Per cambiare la mappa : fare clic sui pulsanti verdi con una croce nera per ingrandire, il pulsante verde con un trattino per diminuire, o sulla freccia verde per le mappe adiacenti.


METAR-TAF: